Time;durP1;ratioP1;P1;durP2;ratioP2;P2;SDS_P1;SDS_P2;PMS_P1;PMS_P2;Temp;Humidity;BMP_temperature;BMP_pressure;BME280_temperature;BME280_humidity;BME280_pressure;Samples;Min_cycle;Max_cycle;Signal;HPM_P1;HPM_P2
2023/01/30 00:00:33;;;;;;;42.00;26.27;;;6.00;99.90;;;;;;5017771;28;20600;-95
2023/01/30 00:03:01;;;;;;;43.45;26.55;;;6.00;99.90;;;;;;5018214;28;20029;-94
2023/01/30 00:05:27;;;;;;;48.58;27.10;;;6.00;99.90;;;;;;5001159;28;20109;-94
2023/01/30 00:07:52;;;;;;;43.85;25.73;;;6.10;99.90;;;;;;5017251;28;20175;-95
2023/01/30 00:10:18;;;;;;;45.10;26.95;;;6.10;99.90;;;;;;5010862;28;20064;-96
2023/01/30 00:12:44;;;;;;;50.15;27.80;;;6.10;99.90;;;;;;5037481;28;20036;-95
2023/01/30 00:15:10;;;;;;;42.90;26.48;;;6.10;99.90;;;;;;5037215;28;20033;-95
2023/01/30 00:17:35;;;;;;;45.40;27.35;;;6.10;99.90;;;;;;5020929;28;20064;-95
2023/01/30 00:20:02;;;;;;;50.28;28.52;;;6.10;99.90;;;;;;5040427;28;20424;-96
2023/01/30 00:22:28;;;;;;;49.70;27.95;;;6.20;99.90;;;;;;5038566;28;20033;-95
2023/01/30 00:24:55;;;;;;;47.78;29.02;;;6.20;99.90;;;;;;5037669;28;20140;-95
2023/01/30 00:27:20;;;;;;;46.72;30.10;;;6.20;99.90;;;;;;5040476;28;20067;-96
2023/01/30 00:29:49;;;;;;;48.05;27.85;;;6.20;99.90;;;;;;5038549;28;20091;-96
2023/01/30 00:32:17;;;;;;;46.65;27.92;;;6.20;99.90;;;;;;5038407;28;20041;-95
2023/01/30 00:34:42;;;;;;;48.33;28.33;;;6.20;99.90;;;;;;5037522;28;20484;-94
2023/01/30 00:37:08;;;;;;;43.95;25.98;;;6.30;99.90;;;;;;5037477;28;20071;-95
2023/01/30 00:39:34;;;;;;;47.95;27.95;;;6.30;99.90;;;;;;5037622;28;20041;-93
2023/01/30 00:47:27;;;;;;;47.45;26.83;;;6.40;99.90;;;;;;5055173;28;20048;-96
2023/01/30 00:49:53;;;;;;;45.65;26.17;;;6.40;99.90;;;;;;5039214;28;20029;-95
2023/01/30 00:52:19;;;;;;;48.05;26.00;;;6.40;99.90;;;;;;5045002;28;20041;-94
2023/01/30 00:54:45;;;;;;;44.10;27.95;;;6.40;99.90;;;;;;5054147;28;20093;-95
2023/01/30 00:57:10;;;;;;;41.75;27.50;;;6.40;99.90;;;;;;5053113;28;20036;-95
2023/01/30 00:59:36;;;;;;;46.97;29.90;;;6.50;99.90;;;;;;5033723;28;20033;-92
2023/01/30 01:02:01;;;;;;;44.47;28.23;;;6.50;99.90;;;;;;5068977;28;20457;-95
2023/01/30 01:04:27;;;;;;;47.53;28.48;;;6.50;99.90;;;;;;5064840;28;20030;-95
2023/01/30 01:06:53;;;;;;;41.30;26.60;;;6.50;99.90;;;;;;5046531;28;20029;-93
2023/01/30 01:09:22;;;;;;;45.05;26.83;;;6.50;99.90;;;;;;5064048;28;20044;-96
2023/01/30 01:11:47;;;;;;;47.92;29.65;;;6.50;99.90;;;;;;5043823;28;20033;-95
2023/01/30 01:14:13;;;;;;;46.25;28.85;;;6.50;99.90;;;;;;5056718;28;20024;-95
2023/01/30 01:16:39;;;;;;;45.08;27.88;;;6.50;99.90;;;;;;5060150;28;20040;-90
2023/01/30 01:19:15;;;;;;;45.97;29.13;;;6.60;99.90;;;;;;5058904;28;20053;-96
2023/01/30 01:21:45;;;;;;;47.42;28.83;;;6.60;99.90;;;;;;5021943;28;20035;-96
2023/01/30 01:24:12;;;;;;;43.40;27.80;;;6.60;99.90;;;;;;5049252;28;20032;-95
2023/01/30 01:26:38;;;;;;;43.80;27.02;;;6.60;99.90;;;;;;5046474;28;20407;-95
2023/01/30 01:29:04;;;;;;;43.92;28.83;;;6.70;99.90;;;;;;5045779;28;20064;-96
2023/01/30 01:31:30;;;;;;;49.75;29.30;;;6.70;99.90;;;;;;5046159;28;20036;-95
2023/01/30 01:33:56;;;;;;;43.90;25.60;;;6.70;99.90;;;;;;5046993;28;20072;-95
2023/01/30 01:36:22;;;;;;;48.38;28.17;;;6.70;99.90;;;;;;5028169;28;20036;-96
2023/01/30 01:38:50;;;;;;;47.10;27.73;;;6.80;99.90;;;;;;5047387;28;20122;-96
2023/01/30 01:41:18;;;;;;;40.00;25.45;;;6.80;99.90;;;;;;5031710;28;20044;-95
2023/01/30 01:44:01;;;;;;;44.13;27.58;;;6.70;99.90;;;;;;5046538;28;20037;-96
2023/01/30 01:46:37;;;;;;;50.90;28.00;;;6.70;99.90;;;;;;5043718;28;20029;-95
2023/01/30 01:49:11;;;;;;;50.30;29.10;;;6.80;99.90;;;;;;5049164;28;20079;-94
2023/01/30 01:51:48;;;;;;;44.42;28.45;;;6.80;99.90;;;;;;5043841;28;20029;-96
2023/01/30 01:54:41;;;;;;;49.78;28.60;;;6.80;99.90;;;;;;5043545;28;20123;-95
2023/01/30 01:57:44;;;;;;;46.88;28.63;;;6.80;99.90;;;;;;5004374;28;20480;-96
2023/01/30 02:00:11;;;;;;;45.35;26.27;;;6.80;99.90;;;;;;5044330;28;20033;-96
2023/01/30 02:02:41;;;;;;;50.55;28.95;;;6.80;99.90;;;;;;5042263;28;20044;-96
2023/01/30 02:05:10;;;;;;;45.25;27.25;;;6.80;99.90;;;;;;5025057;28;20052;-95
2023/01/30 02:07:47;;;;;;;43.92;27.02;;;6.80;99.90;;;;;;5042472;28;20039;-95
2023/01/30 02:10:21;;;;;;;44.28;25.42;;;6.80;99.90;;;;;;5046271;28;20132;-95
2023/01/30 02:12:54;;;;;;;47.33;27.15;;;6.80;99.90;;;;;;5048186;28;20029;-95
2023/01/30 02:15:25;;;;;;;44.72;26.95;;;6.80;99.90;;;;;;5054192;28;20037;-93
2023/01/30 02:17:53;;;;;;;42.10;27.73;;;6.80;99.90;;;;;;5049500;28;20123;-92
2023/01/30 02:20:42;;;;;;;51.47;29.40;;;6.80;99.90;;;;;;5026675;28;20045;-96
2023/01/30 02:23:48;;;;;;;41.63;24.52;;;6.90;99.90;;;;;;5040755;28;20029;-95
2023/01/30 02:26:46;;;;;;;37.22;25.83;;;6.80;99.90;;;;;;5040012;28;20061;-96
2023/01/30 02:29:50;;;;;;;39.88;24.65;;;6.80;99.90;;;;;;5058378;28;20636;-94
2023/01/30 02:32:26;;;;;;;41.83;25.42;;;6.90;99.90;;;;;;5037388;28;20476;-96
2023/01/30 02:35:02;;;;;;;36.38;23.27;;;6.90;99.90;;;;;;5039896;28;20046;-94
2023/01/30 02:37:36;;;;;;;38.70;22.88;;;6.90;99.90;;;;;;5038863;28;20037;-95
2023/01/30 02:40:23;;;;;;;40.20;22.92;;;6.90;99.90;;;;;;5057043;28;20033;-95
2023/01/30 02:42:48;;;;;;;34.03;21.75;;;7.00;99.90;;;;;;5039476;28;20580;-92
2023/01/30 02:45:23;;;;;;;35.38;21.65;;;7.00;99.90;;;;;;5057704;28;20036;-96
2023/01/30 02:47:59;;;;;;;34.25;21.30;;;7.00;99.90;;;;;;5056398;28;20117;-95
2023/01/30 02:50:33;;;;;;;33.78;19.77;;;7.00;99.90;;;;;;5038950;28;20029;-96
2023/01/30 02:53:01;;;;;;;29.60;17.88;;;7.10;99.90;;;;;;5058647;28;20040;-96
2023/01/30 02:55:28;;;;;;;30.52;19.38;;;7.10;99.90;;;;;;5039213;28;20036;-96
2023/01/30 02:57:54;;;;;;;33.67;17.50;;;7.10;99.90;;;;;;5039401;28;20024;-95
2023/01/30 03:00:36;;;;;;;35.45;19.15;;;7.10;99.90;;;;;;5039670;28;20059;-95
2023/01/30 03:03:33;;;;;;;27.65;15.15;;;7.20;99.90;;;;;;5048400;28;20043;-95
2023/01/30 03:06:30;;;;;;;23.42;13.68;;;7.20;99.90;;;;;;5055379;28;20033;-96
2023/01/30 03:09:05;;;;;;;26.35;14.27;;;7.20;99.90;;;;;;5050805;28;20127;-95
2023/01/30 03:11:57;;;;;;;24.00;12.07;;;7.30;99.90;;;;;;5045712;28;20033;-95
2023/01/30 03:14:34;;;;;;;22.70;12.25;;;7.30;99.90;;;;;;5035416;28;20040;-96
2023/01/30 03:17:48;;;;;;;;;;;;;;;;;;;;;
2023/01/30 03:20:17;;;;;;;26.17;14.02;;;7.30;99.90;;;;;;5042966;28;20561;-95
2023/01/30 03:22:45;;;;;;;23.35;13.25;;;7.40;99.90;;;;;;5041696;28;20033;-96
2023/01/30 03:25:21;;;;;;;30.08;13.23;;;7.40;99.90;;;;;;5038331;28;20038;-96
2023/01/30 03:27:49;;;;;;;23.98;12.13;;;7.40;99.90;;;;;;5021139;28;20037;-95
2023/01/30 03:30:15;;;;;;;23.95;12.25;;;7.40;99.90;;;;;;5039662;28;20056;-95
2023/01/30 03:32:40;;;;;;;20.80;11.98;;;7.40;99.90;;;;;;5036665;28;20496;-95
2023/01/30 03:35:06;;;;;;;22.00;11.95;;;7.40;99.90;;;;;;5039764;28;20033;-96
2023/01/30 03:37:32;;;;;;;18.55;11.02;;;7.40;99.90;;;;;;5037356;28;20515;-94
2023/01/30 03:40:01;;;;;;;23.75;12.68;;;7.40;99.90;;;;;;5054983;28;20038;-94
2023/01/30 03:42:27;;;;;;;21.05;11.23;;;7.50;99.90;;;;;;5057427;28;20036;-93
2023/01/30 03:44:53;;;;;;;24.08;12.23;;;7.40;99.90;;;;;;5058021;28;20029;-95
2023/01/30 03:47:18;;;;;;;21.80;12.38;;;7.40;99.90;;;;;;5044623;28;20042;-95
2023/01/30 03:49:44;;;;;;;24.50;11.25;;;7.40;99.90;;;;;;5039216;28;20045;-95
2023/01/30 03:52:10;;;;;;;24.05;12.38;;;7.50;99.90;;;;;;5039732;28;20440;-96
2023/01/30 03:54:35;;;;;;;24.63;11.73;;;7.50;99.90;;;;;;5041328;28;20033;-95
2023/01/30 03:57:01;;;;;;;19.20;11.10;;;7.50;99.90;;;;;;5039980;28;20045;-96
2023/01/30 03:59:27;;;;;;;25.38;12.93;;;7.50;99.90;;;;;;5042162;28;20064;-96
2023/01/30 04:02:03;;;;;;;23.38;11.65;;;7.50;99.90;;;;;;5041097;28;20037;-96
2023/01/30 04:04:29;;;;;;;22.70;10.98;;;7.50;99.90;;;;;;5026938;28;20045;-94
2023/01/30 04:07:04;;;;;;;21.58;10.18;;;7.50;99.90;;;;;;5039669;28;20037;-96
2023/01/30 04:09:34;;;;;;;22.10;10.82;;;7.50;99.90;;;;;;5040524;28;20033;-95
2023/01/30 04:12:00;;;;;;;17.40;10.73;;;7.60;99.90;;;;;;5026752;28;20050;-91
2023/01/30 04:14:29;;;;;;;22.83;10.63;;;7.50;99.90;;;;;;5032982;28;20097;-96
2023/01/30 04:17:00;;;;;;;24.25;12.13;;;7.50;99.90;;;;;;5035009;28;20033;-95
2023/01/30 04:19:25;;;;;;;24.27;11.35;;;7.60;99.90;;;;;;5017826;28;20047;-95
2023/01/30 04:21:53;;;;;;;19.77;10.40;;;7.60;99.90;;;;;;5035070;28;20074;-96
2023/01/30 04:24:43;;;;;;;28.73;11.63;;;7.60;99.90;;;;;;5002158;28;20065;-96
2023/01/30 04:27:08;;;;;;;20.77;9.30;;;7.60;99.90;;;;;;5030938;28;20046;-95
2023/01/30 04:29:34;;;;;;;22.15;9.45;;;7.60;99.90;;;;;;5047945;28;20030;-95
2023/01/30 04:32:00;;;;;;;23.65;10.02;;;7.60;99.90;;;;;;5024175;28;20034;-95
2023/01/30 04:34:25;;;;;;;25.60;9.85;;;7.60;99.90;;;;;;5023190;28;20040;-95
2023/01/30 04:36:51;;;;;;;26.63;9.75;;;7.70;99.90;;;;;;5019213;28;20479;-95
2023/01/30 04:39:17;;;;;;;24.10;9.75;;;7.70;99.90;;;;;;5032489;28;20030;-95
2023/01/30 04:41:46;;;;;;;20.35;9.23;;;7.70;99.90;;;;;;5031417;28;20030;-96
2023/01/30 04:44:11;;;;;;;28.98;10.45;;;7.70;99.90;;;;;;5033834;28;20045;-95
2023/01/30 04:46:37;;;;;;;23.85;10.23;;;7.70;99.90;;;;;;5021843;28;20042;-96
2023/01/30 04:49:03;;;;;;;21.35;9.90;;;7.70;99.90;;;;;;5021614;28;20026;-96
2023/01/30 04:51:29;;;;;;;22.60;9.88;;;7.70;99.90;;;;;;5022427;28;20030;-96
2023/01/30 04:53:54;;;;;;;15.40;7.35;;;7.70;99.90;;;;;;5020627;28;20033;-94
2023/01/30 04:56:20;;;;;;;18.83;8.25;;;7.70;99.90;;;;;;5038353;28;20049;-96
2023/01/30 04:58:46;;;;;;;21.27;8.18;;;7.80;99.90;;;;;;5036223;28;20436;-95
2023/01/30 05:01:23;;;;;;;19.67;9.02;;;7.70;99.90;;;;;;5021236;28;20044;-95
2023/01/30 05:03:53;;;;;;;18.90;7.60;;;7.70;99.90;;;;;;5036754;28;20040;-96
2023/01/30 05:06:19;;;;;;;21.52;8.30;;;7.70;99.90;;;;;;5019729;28;20062;-95
2023/01/30 05:08:53;;;;;;;21.42;8.27;;;7.80;99.90;;;;;;5021498;28;20050;-95
2023/01/30 05:11:19;;;;;;;25.70;8.45;;;7.80;99.90;;;;;;5025646;28;20045;-95
2023/01/30 05:13:54;;;;;;;28.02;9.10;;;7.80;99.90;;;;;;5045201;28;20029;-96
2023/01/30 05:16:22;;;;;;;18.52;7.97;;;7.80;99.90;;;;;;5048981;28;20037;-96
2023/01/30 05:18:49;;;;;;;22.20;7.75;;;7.80;99.90;;;;;;5041739;28;20119;-96
2023/01/30 05:21:25;;;;;;;22.00;8.35;;;7.80;99.90;;;;;;5039097;28;20083;-96
2023/01/30 05:23:52;;;;;;;22.08;7.60;;;7.80;99.90;;;;;;5039999;28;20038;-95
2023/01/30 05:26:18;;;;;;;17.10;6.88;;;7.80;99.90;;;;;;5024157;28;20120;-95
2023/01/30 05:28:56;;;;;;;19.30;7.20;;;7.80;99.90;;;;;;5045299;28;20088;-96
2023/01/30 05:31:22;;;;;;;23.20;7.13;;;7.90;99.90;;;;;;5028893;28;20055;-96
2023/01/30 05:33:51;;;;;;;24.88;7.25;;;7.90;99.90;;;;;;5038528;28;20034;-96
2023/01/30 05:36:20;;;;;;;12.90;6.25;;;7.80;99.90;;;;;;5041348;28;20084;-96
2023/01/30 05:38:49;;;;;;;19.98;6.18;;;7.90;99.90;;;;;;5040593;28;20029;-95
2023/01/30 05:41:16;;;;;;;21.42;5.75;;;7.90;99.90;;;;;;5041541;28;20075;-94
2023/01/30 05:43:45;;;;;;;18.95;6.10;;;7.90;99.90;;;;;;5048682;28;20064;-95
2023/01/30 05:46:12;;;;;;;20.88;6.00;;;7.90;99.90;;;;;;5028687;28;20053;-93
2023/01/30 05:48:40;;;;;;;19.77;6.18;;;7.90;99.90;;;;;;5021962;28;20088;-95
2023/01/30 05:53:53;;;;;;;20.20;4.78;;;7.90;99.90;;;;;;5036619;28;20115;-89
2023/01/30 05:56:19;;;;;;;22.13;4.78;;;7.90;99.90;;;;;;5024548;28;20064;-90
2023/01/30 05:58:55;;;;;;;16.08;3.78;;;8.00;99.90;;;;;;5036603;28;20482;-90
2023/01/30 06:01:21;;;;;;;12.60;3.97;;;7.90;99.90;;;;;;5004363;28;20030;-91
2023/01/30 06:03:47;;;;;;;19.35;4.03;;;7.90;99.90;;;;;;5020131;28;20029;-89
2023/01/30 06:06:14;;;;;;;18.20;3.08;;;7.90;99.90;;;;;;5036156;28;20060;-92
2023/01/30 06:08:40;;;;;;;15.85;3.50;;;7.90;99.90;;;;;;5003305;28;20029;-91
2023/01/30 06:11:11;;;;;;;16.60;3.42;;;7.90;99.90;;;;;;5019611;28;20540;-90
2023/01/30 06:13:37;;;;;;;15.32;3.35;;;7.90;99.90;;;;;;5036386;28;20033;-92
2023/01/30 06:16:04;;;;;;;18.60;4.07;;;7.90;99.90;;;;;;5019285;28;20057;-92
2023/01/30 06:18:29;;;;;;;15.45;2.80;;;7.80;99.90;;;;;;5019521;28;20475;-91
2023/01/30 06:20:59;;;;;;;15.88;3.05;;;7.80;99.90;;;;;;5026211;28;20072;-92
2023/01/30 06:23:25;;;;;;;19.60;2.95;;;7.80;99.90;;;;;;5052364;28;20053;-91
2023/01/30 06:25:52;;;;;;;13.02;2.45;;;7.80;99.90;;;;;;5049759;28;20131;-92
2023/01/30 06:28:19;;;;;;;14.35;3.72;;;7.80;99.90;;;;;;5048841;28;20025;-91
2023/01/30 06:30:45;;;;;;;17.65;3.58;;;7.70;99.90;;;;;;5053402;28;20379;-92
2023/01/30 06:33:11;;;;;;;13.93;2.92;;;7.70;99.90;;;;;;5039457;28;20013;-92
2023/01/30 06:35:38;;;;;;;17.23;2.90;;;7.70;99.90;;;;;;5059437;28;20026;-91
2023/01/30 06:38:04;;;;;;;14.88;3.20;;;7.70;99.90;;;;;;5037316;28;20087;-89
2023/01/30 06:40:30;;;;;;;19.63;4.80;;;7.70;99.90;;;;;;5035923;28;20382;-90
2023/01/30 06:42:55;;;;;;;16.20;2.90;;;7.70;99.90;;;;;;5019127;28;20045;-89
2023/01/30 06:45:21;;;;;;;17.60;3.05;;;7.70;99.90;;;;;;5019372;28;20041;-89
2023/01/30 06:47:54;;;;;;;19.85;3.75;;;7.60;99.90;;;;;;5035705;28;20435;-90
2023/01/30 06:50:23;;;;;;;17.00;3.25;;;7.60;99.90;;;;;;5018712;28;20041;-91
2023/01/30 06:52:50;;;;;;;21.02;4.60;;;7.60;99.90;;;;;;5035476;28;20041;-92
2023/01/30 06:55:18;;;;;;;21.45;4.43;;;7.60;99.90;;;;;;5019119;28;20379;-92
2023/01/30 06:57:59;;;;;;;20.63;3.35;;;7.60;99.90;;;;;;5036736;28;20041;-92
2023/01/30 07:00:25;;;;;;;22.00;3.33;;;7.60;99.90;;;;;;5035501;28;20065;-91
2023/01/30 07:06:12;;;;;;;18.65;3.25;;;7.50;99.90;;;;;;5036850;28;20053;-91
2023/01/30 07:08:39;;;;;;;26.67;3.95;;;7.50;99.90;;;;;;5002482;28;20414;-90
2023/01/30 07:11:05;;;;;;;21.15;3.30;;;7.50;99.90;;;;;;5019774;28;20040;-91
2023/01/30 07:13:31;;;;;;;24.27;3.17;;;7.50;99.90;;;;;;5022111;28;20120;-91
2023/01/30 07:15:56;;;;;;;18.83;3.22;;;7.50;99.90;;;;;;5021218;28;20128;-92
2023/01/30 07:18:27;;;;;;;19.95;3.55;;;7.40;99.90;;;;;;5002252;28;20129;-93
2023/01/30 07:20:53;;;;;;;25.38;3.38;;;7.40;99.90;;;;;;5034377;28;20463;-92
2023/01/30 07:23:19;;;;;;;20.73;3.10;;;7.40;99.90;;;;;;5018048;28;20122;-91
2023/01/30 07:25:45;;;;;;;17.75;3.80;;;7.40;99.90;;;;;;5017940;28;20034;-91
2023/01/30 07:28:10;;;;;;;21.33;3.40;;;7.30;99.90;;;;;;5034675;28;20106;-93
2023/01/30 07:30:36;;;;;;;22.65;4.22;;;7.30;99.90;;;;;;5019795;28;20034;-92
2023/01/30 07:33:03;;;;;;;28.90;5.53;;;7.30;99.90;;;;;;5020557;28;20098;-93
2023/01/30 07:35:31;;;;;;;25.00;4.65;;;7.30;99.90;;;;;;5022497;28;20052;-93
2023/01/30 07:37:57;;;;;;;22.35;3.78;;;7.30;99.90;;;;;;5021057;28;20033;-92
2023/01/30 07:40:23;;;;;;;22.08;3.92;;;7.20;99.90;;;;;;5035005;28;20492;-93
2023/01/30 07:42:56;;;;;;;23.02;3.58;;;7.20;99.90;;;;;;5018288;28;20096;-93
2023/01/30 07:45:22;;;;;;;22.45;4.72;;;7.20;99.90;;;;;;5019105;28;20084;-92
2023/01/30 07:47:48;;;;;;;27.67;4.30;;;7.20;99.90;;;;;;5019068;28;20069;-91
2023/01/30 07:50:13;;;;;;;25.38;4.20;;;7.20;99.90;;;;;;5035104;28;20037;-94
2023/01/30 07:52:39;;;;;;;21.85;4.03;;;7.20;99.90;;;;;;5018987;28;20493;-92
2023/01/30 07:55:05;;;;;;;27.10;4.15;;;7.20;99.90;;;;;;5005027;28;20034;-92
2023/01/30 07:57:31;;;;;;;21.33;4.13;;;7.10;99.90;;;;;;5021509;28;20037;-92
2023/01/30 07:59:56;;;;;;;26.00;3.65;;;7.10;99.90;;;;;;5021517;28;20033;-92
2023/01/30 08:02:22;;;;;;;33.78;4.93;;;7.10;99.90;;;;;;5001948;28;20474;-94
2023/01/30 08:04:48;;;;;;;22.80;3.20;;;7.10;99.90;;;;;;5001661;28;20080;-93
2023/01/30 08:07:13;;;;;;;27.00;4.82;;;7.10;99.90;;;;;;5017700;28;20036;-94
2023/01/30 08:09:39;;;;;;;21.50;3.25;;;7.10;99.90;;;;;;5033849;28;20584;-92
2023/01/30 08:12:05;;;;;;;23.63;3.67;;;7.10;99.90;;;;;;5001504;28;20124;-94
2023/01/30 08:14:31;;;;;;;23.42;3.35;;;7.00;99.90;;;;;;5033994;28;20359;-93
2023/01/30 08:16:56;;;;;;;26.52;3.95;;;7.10;99.90;;;;;;5018005;28;20041;-93
2023/01/30 08:19:22;;;;;;;22.00;4.07;;;7.10;99.90;;;;;;5018803;28;20386;-93
2023/01/30 08:21:48;;;;;;;26.42;3.83;;;7.10;99.90;;;;;;5034176;28;20080;-92
2023/01/30 08:24:13;;;;;;;18.33;3.60;;;7.10;99.90;;;;;;5017826;28;20061;-92
2023/01/30 08:26:39;;;;;;;23.17;4.25;;;7.10;99.90;;;;;;5017180;28;20406;-92
2023/01/30 08:29:05;;;;;;;24.25;4.53;;;7.10;99.90;;;;;;5001517;28;20026;-92
2023/01/30 08:31:30;;;;;;;23.02;2.92;;;7.10;99.90;;;;;;5018677;28;20120;-92
2023/01/30 08:33:56;;;;;;;17.90;2.72;;;7.10;99.90;;;;;;5002774;28;20033;-91
2023/01/30 08:36:22;;;;;;;21.42;3.30;;;7.10;99.90;;;;;;5001473;28;20045;-94
2023/01/30 08:38:47;;;;;;;25.10;4.03;;;7.10;99.90;;;;;;5001031;28;20536;-93
2023/01/30 08:41:13;;;;;;;18.33;3.25;;;7.10;99.90;;;;;;5017407;28;20046;-93
2023/01/30 08:43:39;;;;;;;18.27;3.97;;;7.10;99.90;;;;;;5001122;28;20053;-93
2023/01/30 08:46:05;;;;;;;17.80;3.10;;;7.10;99.90;;;;;;5034598;28;20048;-95
2023/01/30 08:48:31;;;;;;;27.38;3.58;;;7.10;99.90;;;;;;5017391;28;20029;-93
2023/01/30 08:50:57;;;;;;;20.58;3.35;;;7.10;99.90;;;;;;5019760;28;20036;-92
2023/01/30 08:53:23;;;;;;;26.38;3.22;;;7.10;99.90;;;;;;5022931;28;20136;-92
2023/01/30 08:55:53;;;;;;;22.98;4.28;;;7.20;99.90;;;;;;5039038;28;20030;-91
2023/01/30 08:58:21;;;;;;;18.15;2.78;;;7.20;99.90;;;;;;5017842;28;20026;-92
2023/01/30 09:00:48;;;;;;;18.65;3.63;;;7.20;99.90;;;;;;5017219;28;20040;-92
2023/01/30 09:03:14;;;;;;;51.75;5.55;;;7.20;99.90;;;;;;5016833;28;20486;-90
2023/01/30 09:05:40;;;;;;;22.77;3.60;;;7.30;99.90;;;;;;5024534;28;20026;-88
2023/01/30 09:08:06;;;;;;;24.17;4.68;;;7.30;99.90;;;;;;4994855;28;20141;-88
2023/01/30 09:10:32;;;;;;;21.50;3.30;;;7.30;99.90;;;;;;4992587;28;20096;-89
2023/01/30 09:12:57;;;;;;;19.60;3.08;;;7.30;99.90;;;;;;5006617;28;20475;-92
2023/01/30 09:15:23;;;;;;;18.38;2.97;;;7.40;99.90;;;;;;5015124;28;20503;-89
2023/01/30 09:17:51;;;;;;;21.15;2.78;;;7.40;99.90;;;;;;5003620;28;20402;-90
2023/01/30 09:20:19;;;;;;;29.70;3.97;;;7.40;99.90;;;;;;5016227;28;20045;-88
2023/01/30 09:22:45;;;;;;;16.40;3.08;;;7.50;99.90;;;;;;4998621;28;20061;-89
2023/01/30 09:25:11;;;;;;;22.90;3.08;;;7.50;99.90;;;;;;5032849;28;20034;-93
2023/01/30 09:27:37;;;;;;;22.88;3.38;;;7.50;99.90;;;;;;5025329;28;20109;-93
2023/01/30 09:30:04;;;;;;;21.25;3.17;;;7.50;99.90;;;;;;5019800;28;20025;-90
2023/01/30 09:32:30;;;;;;;21.23;3.10;;;7.60;99.90;;;;;;5048336;28;20026;-91
2023/01/30 09:34:56;;;;;;;23.25;3.55;;;7.60;99.90;;;;;;5009594;28;20033;-90
2023/01/30 09:37:21;;;;;;;17.00;3.03;;;7.60;99.90;;;;;;5028541;28;20102;-91
2023/01/30 09:39:47;;;;;;;22.10;4.07;;;7.60;99.90;;;;;;4999293;28;20045;-92
2023/01/30 09:42:25;;;;;;;20.88;3.63;;;7.60;99.90;;;;;;5000255;28;20036;-95
2023/01/30 09:45:05;;;;;;;18.08;3.10;;;7.60;99.90;;;;;;5017388;28;20092;-94
2023/01/30 09:47:59;;;;;;;21.42;3.70;;;7.60;99.90;;;;;;5023379;28;20088;-93
2023/01/30 09:51:15;;;;;;;23.85;3.47;;;7.60;99.90;;;;;;5023998;28;20057;-92
2023/01/30 09:53:56;;;;;;;18.95;3.95;;;7.70;99.90;;;;;;4955784;28;20050;-91
2023/01/30 09:56:25;;;;;;;19.95;4.15;;;7.60;99.90;;;;;;4985256;28;20061;-94
2023/01/30 09:58:57;;;;;;;20.52;3.38;;;7.60;99.90;;;;;;4993699;28;20030;-93
2023/01/30 10:01:30;;;;;;;19.75;3.50;;;7.60;99.90;;;;;;4999392;28;20042;-93
2023/01/30 10:04:12;;;;;;;20.00;3.05;;;7.70;99.90;;;;;;5013468;28;20022;-94
2023/01/30 10:06:50;;;;;;;25.25;3.60;;;7.70;99.90;;;;;;5014469;28;20042;-93
2023/01/30 10:09:54;;;;;;;21.33;3.58;;;7.70;99.90;;;;;;5004655;28;20046;-94
2023/01/30 10:12:41;;;;;;;20.95;3.80;;;7.70;99.90;;;;;;4989703;28;20102;-91
2023/01/30 10:15:30;;;;;;;22.23;3.17;;;7.80;99.90;;;;;;5004843;28;20042;-93
2023/01/30 10:18:33;;;;;;;20.60;3.70;;;7.80;99.90;;;;;;4990576;28;20464;-96
2023/01/30 10:24:47;;;;;;;19.65;2.97;;;7.90;99.90;;;;;;5010582;28;20084;-96
2023/01/30 10:27:49;;;;;;;21.85;3.33;;;7.90;99.90;;;;;;4997228;28;20041;-95
2023/01/30 10:34:05;;;;;;;23.63;4.90;;;7.90;99.90;;;;;;4921354;28;20047;-92
2023/01/30 10:38:18;;;;;;;;;;;;;;;;;;;;;
2023/01/30 10:44:24;;;;;;;19.73;3.33;;;8.00;99.90;;;;;;4957121;29;20118;-93
2023/01/30 10:50:17;;;;;;;17.92;3.53;;;8.00;99.90;;;;;;4956193;29;20053;-91
2023/01/30 10:53:07;;;;;;;19.02;3.72;;;8.00;99.90;;;;;;4938194;28;20039;-94
2023/01/30 10:55:50;;;;;;;20.85;3.05;;;8.00;99.90;;;;;;4931207;29;20059;-93
2023/01/30 10:58:49;;;;;;;;;;;;;;;;;;;;;
2023/01/30 11:08:31;;;;;;;18.65;3.03;;;8.10;99.90;;;;;;4918937;28;20462;-93
2023/01/30 11:10:58;;;;;;;22.60;3.45;;;8.10;99.90;;;;;;4983276;28;20113;-92
2023/01/30 11:13:36;;;;;;;20.98;2.67;;;8.10;99.90;;;;;;4989006;28;20443;-92
2023/01/30 11:16:09;;;;;;;15.90;2.92;;;8.20;99.90;;;;;;4983398;28;20040;-92
2023/01/30 11:18:50;;;;;;;17.20;3.05;;;8.20;99.90;;;;;;4984103;28;20452;-92
2023/01/30 11:21:26;;;;;;;16.75;3.08;;;8.30;99.90;;;;;;4989051;28;20039;-92
2023/01/30 11:24:16;;;;;;;20.67;3.88;;;8.30;99.90;;;;;;4982875;28;20632;-92
2023/01/30 11:26:46;;;;;;;20.98;3.58;;;8.40;99.90;;;;;;4989582;28;20034;-93
2023/01/30 11:29:32;;;;;;;20.00;3.28;;;8.40;99.90;;;;;;4987770;28;20068;-93
2023/01/30 11:32:17;;;;;;;16.35;2.88;;;8.40;99.90;;;;;;4985272;28;20035;-92
2023/01/30 11:34:43;;;;;;;16.23;3.60;;;8.50;99.90;;;;;;4998681;28;20137;-92
2023/01/30 11:37:43;;;;;;;23.42;5.18;;;8.60;99.90;;;;;;4982738;28;20085;-92
2023/01/30 11:40:22;;;;;;;22.90;4.00;;;8.60;99.90;;;;;;4977622;28;20046;-92
2023/01/30 11:42:58;;;;;;;17.90;3.90;;;8.60;99.90;;;;;;4979690;28;20034;-91
2023/01/30 11:45:28;;;;;;;24.42;5.05;;;8.70;99.90;;;;;;4979506;28;20060;-92
2023/01/30 11:51:42;;;;;;;;;;;;;;;;;;;;;
2023/01/30 11:55:00;;;;;;;;;;;;;;;;;;;;;
2023/01/30 11:58:07;;;;;;;20.98;4.72;;;9.00;99.90;;;;;;5035914;28;20036;-94
2023/01/30 12:00:51;;;;;;;19.45;3.40;;;9.00;99.90;;;;;;4963689;28;20030;-94
2023/01/30 12:03:42;;;;;;;24.70;4.07;;;9.10;99.90;;;;;;5018242;28;20038;-94
2023/01/30 12:06:08;;;;;;;26.58;3.92;;;9.10;99.90;;;;;;5031490;28;20041;-93
2023/01/30 12:12:12;;;;;;;;;;;9.20;99.90;;;;;;5016819;28;20034;-93
2023/01/30 12:14:48;;;;;;;18.65;4.60;;;9.20;99.90;;;;;;5013582;28;19916;-92
2023/01/30 12:17:36;;;;;;;19.63;3.13;;;9.20;99.90;;;;;;4997861;28;20096;-93
2023/01/30 12:20:14;;;;;;;20.45;3.80;;;9.20;99.90;;;;;;5000938;28;20033;-89
2023/01/30 12:23:02;;;;;;;17.08;4.13;;;9.30;99.90;;;;;;5003031;28;20060;-92
2023/01/30 12:25:40;;;;;;;20.50;3.50;;;9.30;99.90;;;;;;5013994;28;20034;-91
2023/01/30 12:28:24;;;;;;;15.27;3.45;;;9.30;99.90;;;;;;5007925;28;20505;-93
2023/01/30 12:31:37;;;;;;;;;;;;;;;;;;;;;
2023/01/30 12:34:06;;;;;;;25.25;3.70;;;9.30;99.90;;;;;;5015750;28;20109;-93
2023/01/30 12:36:54;;;;;;;20.13;3.55;;;9.30;99.90;;;;;;4997121;28;20121;-93
2023/01/30 12:39:52;;;;;;;18.58;3.33;;;9.30;99.90;;;;;;4997840;28;20088;-91
2023/01/30 12:42:21;;;;;;;16.67;3.67;;;9.30;99.90;;;;;;4996728;28;20080;-93
2023/01/30 12:45:01;;;;;;;23.67;3.75;;;9.40;99.90;;;;;;4997040;28;20042;-94
2023/01/30 12:47:58;;;;;;;;;;;;;;;;;;;;;
2023/01/30 12:50:35;;;;;;;19.52;3.30;;;9.40;99.90;;;;;;4996680;28;20049;-93
2023/01/30 12:53:32;;;;;;;;;;;;;;;;;;;;;
2023/01/30 12:56:26;;;;;;;23.35;5.13;;;9.40;99.90;;;;;;4995569;28;20034;-93
2023/01/30 12:59:25;;;;;;;17.58;3.78;;;9.40;99.90;;;;;;4978380;28;20030;-93
2023/01/30 13:02:30;;;;;;;23.55;3.47;;;9.40;99.90;;;;;;4994355;28;20402;-94
2023/01/30 13:05:32;;;;;;;;;;;;;;;;;;;;;
2023/01/30 13:08:42;;;;;;;;;;;;;;;;;;;;;
2023/01/30 13:11:27;;;;;;;22.65;3.80;;;9.40;99.90;;;;;;4995591;28;20038;-93
2023/01/30 13:14:12;;;;;;;25.05;3.67;;;9.40;99.90;;;;;;4994737;28;20039;-92
2023/01/30 13:16:53;;;;;;;19.92;3.60;;;9.40;99.90;;;;;;5002709;28;20018;-93
2023/01/30 13:19:51;;;;;;;20.40;3.60;;;9.50;99.90;;;;;;5005200;28;20026;-92
2023/01/30 13:26:04;;;;;;;20.45;3.55;;;9.50;99.90;;;;;;4995028;28;20573;-93
2023/01/30 13:29:14;;;;;;;20.33;4.07;;;9.50;99.90;;;;;;4981012;28;20089;-92
2023/01/30 13:31:48;;;;;;;22.98;3.92;;;9.50;99.90;;;;;;4981317;28;20026;-93
2023/01/30 13:34:42;;;;;;;;;;;;;;;;;;;;;
2023/01/30 13:37:37;;;;;;;17.67;3.63;;;9.50;99.90;;;;;;4998380;28;20046;-92
2023/01/30 13:40:24;;;;;;;;;;;;;;;;;;;;;
2023/01/30 13:43:18;;;;;;;17.13;3.30;;;9.40;99.90;;;;;;4997621;28;20474;-93
2023/01/30 13:46:04;;;;;;;;;;;;;;;;;;;;;
2023/01/30 13:48:41;;;;;;;19.58;3.20;;;9.40;99.90;;;;;;5002462;28;20466;-93
2023/01/30 13:51:38;;;;;;;;;;;;;;;;;;;;;
2023/01/30 13:55:17;;;;;;;19.45;3.03;;;9.40;99.90;;;;;;5017864;28;20033;-93
2023/01/30 13:58:10;;;;;;;15.80;3.17;;;9.40;99.90;;;;;;4935837;29;20043;-94
2023/01/30 14:00:36;;;;;;;20.10;4.15;;;9.50;99.90;;;;;;4944170;29;20043;-93
2023/01/30 14:03:15;;;;;;;17.65;3.92;;;9.40;99.90;;;;;;5009169;28;20098;-94
2023/01/30 14:05:55;;;;;;;23.05;3.40;;;9.40;99.90;;;;;;5021754;28;20033;-92
2023/01/30 14:08:25;;;;;;;20.55;3.47;;;9.50;99.90;;;;;;5015395;28;20036;-94
2023/01/30 14:11:11;;;;;;;;;;;;;;;;;;;;;
2023/01/30 14:13:53;;;;;;;24.02;3.90;;;9.50;99.90;;;;;;5028253;28;20049;-92
2023/01/30 14:16:19;;;;;;;19.45;3.65;;;9.50;99.90;;;;;;5017491;28;20057;-92
2023/01/30 14:19:00;;;;;;;18.60;3.60;;;9.50;99.90;;;;;;5016153;28;20026;-94